Time;durP1;ratioP1;P1;durP2;ratioP2;P2;SDS_P1;SDS_P2;PMS_P1;PMS_P2;Temp;Humidity;BMP_temperature;BMP_pressure;BME280_temperature;BME280_humidity;BME280_pressure;Samples;Min_cycle;Max_cycle;Signal;HPM_P1;HPM_P2
2022/01/25 00:33:35;;;;;;;24.15;19.48;;;;;;;6.63;79.61;102306.91;5027363;28;20037;-72
2022/01/25 00:36:02;;;;;;;24.50;18.67;;;;;;;6.53;79.44;102310.88;5028101;28;20033;-72
2022/01/25 00:38:27;;;;;;;28.85;21.42;;;;;;;6.43;80.29;102318.34;5030918;28;20119;-72
2022/01/25 00:40:53;;;;;;;26.33;20.60;;;;;;;6.51;80.09;102312.53;5030933;28;20128;-72
2022/01/25 00:43:23;;;;;;;26.65;20.40;;;;;;;6.59;79.87;102310.22;5030861;28;20083;-72
2022/01/25 00:45:50;;;;;;;27.70;21.77;;;;;;;6.65;80.13;102320.94;5028808;28;20034;-71
2022/01/25 00:48:30;;;;;;;25.55;20.17;;;;;;;6.64;79.79;102313.91;5029948;28;20416;-72
2022/01/25 00:51:17;;;;;;;27.65;21.60;;;;;;;6.69;80.07;102303.59;5027626;28;20128;-71
2022/01/25 00:56:25;;;;;;;28.92;20.38;;;;;;;6.65;80.35;102306.94;5027423;28;20175;-71
2022/01/25 00:58:51;;;;;;;32.22;23.38;;;;;;;6.58;81.13;102306.72;5029055;28;20442;-71
2022/01/25 01:01:18;;;;;;;41.33;27.02;;;;;;;6.48;81.94;102303.66;5030772;28;20506;-71
2022/01/25 01:03:43;;;;;;;30.38;21.13;;;;;;;6.43;82.55;102308.72;5030734;28;20492;-72
2022/01/25 01:06:08;;;;;;;28.83;19.42;;;;;;;6.51;82.46;102299.44;5034113;28;20037;-71
2022/01/25 01:08:34;;;;;;;28.85;20.23;;;;;;;6.46;83.13;102298.34;5035942;28;20100;-71
2022/01/25 01:11:03;;;;;;;24.50;17.77;;;;;;;6.50;82.80;102300.28;5033579;28;20059;-71
2022/01/25 01:36:00;;;;;;;22.77;15.55;;;;;;;6.30;84.54;102280.25;5030005;28;20040;-72
2022/01/25 01:44:38;;;;;;;18.55;14.15;;;;;;;6.24;84.10;102264.28;4991808;28;20042;-71
2022/01/25 01:47:08;;;;;;;17.48;12.45;;;;;;;6.23;84.32;102262.47;4991949;28;20109;-72
2022/01/25 01:49:41;;;;;;;18.80;13.32;;;;;;;6.16;84.01;102266.59;5016717;28;20049;-71
2022/01/25 01:52:07;;;;;;;17.02;13.68;;;;;;;6.15;84.29;102264.78;5029673;28;20033;-71
2022/01/25 01:54:32;;;;;;;18.23;13.55;;;;;;;6.12;84.12;102262.94;5033322;28;20522;-72
2022/01/25 01:56:58;;;;;;;18.55;14.10;;;;;;;6.17;84.21;102259.63;5032171;28;20491;-72
2022/01/25 01:59:23;;;;;;;20.33;14.63;;;;;;;6.17;83.89;102252.63;5031293;28;20038;-72
2022/01/25 02:01:49;;;;;;;17.35;13.68;;;;;;;6.15;84.01;102264.78;5033467;28;20041;-72
2022/01/25 02:04:16;;;;;;;20.05;14.00;;;;;;;6.11;84.50;102258.53;5033322;28;20037;-72
2022/01/25 02:06:41;;;;;;;18.38;14.50;;;;;;;6.06;83.84;102259.19;5031816;28;20084;-72
2022/01/25 02:09:08;;;;;;;18.02;13.95;;;;;;;5.99;84.62;102260.66;5033304;28;20467;-72
2022/01/25 02:11:34;;;;;;;20.23;13.98;;;;;;;5.98;84.46;102256.25;5033181;28;20060;-72
2022/01/25 02:14:05;;;;;;;19.33;14.15;;;;;;;5.94;84.75;102254.34;5033177;28;20134;-72
2022/01/25 02:16:44;;;;;;;22.50;15.35;;;;;;;5.85;85.49;102248.72;5028932;28;20044;-72
2022/01/25 02:24:40;;;;;;;22.83;15.27;;;;;;;5.87;85.15;102242.69;5032885;28;20025;-72
2022/01/25 02:27:06;;;;;;;22.85;16.55;;;;;;;5.92;84.65;102235.91;5032882;28;20626;-72
2022/01/25 02:29:31;;;;;;;21.98;16.60;;;;;;;5.89;84.69;102241.03;5031558;28;20446;-72
2022/01/25 02:31:57;;;;;;;21.48;16.48;;;;;;;5.91;85.20;102241.09;5032861;28;20395;-72
2022/01/25 02:34:24;;;;;;;21.10;15.32;;;;;;;5.89;84.62;102235.81;5030365;28;20037;-72
2022/01/25 02:37:01;;;;;;;22.98;16.52;;;;;;;5.83;84.87;102234.66;5032798;28;20037;-72
2022/01/25 02:39:27;;;;;;;21.63;16.77;;;;;;;5.74;85.48;102218.53;5032185;28;20484;-72
2022/01/25 02:41:53;;;;;;;21.42;16.23;;;;;;;5.72;85.54;102222.00;5032415;28;20056;-72
2022/01/25 02:44:24;;;;;;;23.58;16.73;;;;;;;5.76;85.69;102220.38;5032279;28;20037;-72
2022/01/25 02:49:30;;;;;;;22.90;17.00;;;;;;;5.59;85.92;102210.97;5028612;28;20079;-72
2022/01/25 02:51:56;;;;;;;21.45;15.27;;;;;;;5.70;85.76;102213.19;5032402;28;20030;-72
2022/01/25 02:54:21;;;;;;;25.00;18.48;;;;;;;5.68;85.99;102217.44;5032171;28;20388;-72
2022/01/25 02:56:47;;;;;;;24.42;17.75;;;;;;;5.68;86.30;102206.97;5032170;28;20495;-72
2022/01/25 02:59:16;;;;;;;24.48;18.27;;;;;;;5.77;85.44;102213.44;5032235;28;20368;-72
2022/01/25 03:01:42;;;;;;;23.70;18.05;;;;;;;5.78;84.99;102210.88;5029753;28;20064;-72
2022/01/25 03:04:08;;;;;;;22.15;16.23;;;;;;;5.63;86.28;102207.63;5032085;28;20543;-72
2022/01/25 03:06:34;;;;;;;21.65;16.05;;;;;;;5.64;86.09;102218.19;5031312;28;20175;-71
2022/01/25 03:09:01;;;;;;;22.90;16.08;;;;;;;5.61;86.13;102206.69;5031956;28;20065;-72
2022/01/25 03:11:26;;;;;;;22.52;16.95;;;;;;;5.63;86.39;102205.94;5030633;28;20033;-72
2022/01/25 03:14:00;;;;;;;21.65;16.33;;;;;;;5.60;85.95;102208.38;5031765;28;20022;-72
2022/01/25 03:16:44;;;;;;;22.08;16.20;;;;;;;5.56;85.53;102203.00;5031848;28;20041;-72
2022/01/25 03:19:40;;;;;;;20.30;16.02;;;;;;;5.56;86.55;102208.22;5028872;28;20038;-72
2022/01/25 03:22:19;;;;;;;25.05;17.27;;;;;;;5.57;86.64;102205.66;5027135;28;20052;-72
2022/01/25 03:24:46;;;;;;;26.80;17.27;;;;;;;5.62;86.01;102211.09;5031620;28;20073;-72
2022/01/25 03:27:11;;;;;;;23.33;16.60;;;;;;;5.54;86.26;102204.66;5031774;28;20037;-72
2022/01/25 03:29:36;;;;;;;22.05;16.20;;;;;;;5.48;85.96;102211.41;5030141;28;20522;-71
2022/01/25 03:32:03;;;;;;;22.45;16.63;;;;;;;5.45;86.98;102210.41;5031575;28;20034;-71
2022/01/25 03:34:28;;;;;;;22.17;17.38;;;;;;;5.46;87.00;102207.84;5028270;28;20033;-71
2022/01/25 03:36:53;;;;;;;20.85;15.63;;;;;;;5.47;86.86;102200.88;5031640;28;20056;-72
2022/01/25 03:39:19;;;;;;;23.02;16.08;;;;;;;5.44;87.22;102198.13;5031193;28;20041;-71
2022/01/25 03:41:44;;;;;;;23.15;18.15;;;;;;;5.51;87.10;102204.53;5030832;28;20111;-71
2022/01/25 03:44:10;;;;;;;23.02;16.33;;;;;;;5.58;86.78;102203.91;5031299;28;20063;-71
2022/01/25 03:46:57;;;;;;;25.33;17.20;;;;;;;5.53;86.50;102202.84;5030571;28;20427;-72
2022/01/25 03:52:07;;;;;;;22.48;16.70;;;;;;;5.56;86.48;102198.63;5031472;28;20037;-72
2022/01/25 03:54:32;;;;;;;26.20;16.80;;;;;;;5.60;86.47;102199.66;5026990;28;20043;-72
2022/01/25 03:56:58;;;;;;;21.98;16.15;;;;;;;5.49;87.14;102199.22;5029946;28;20036;-72
2022/01/25 03:59:23;;;;;;;22.08;17.55;;;;;;;5.49;87.25;102204.44;5031278;28;20084;-71
2022/01/25 04:01:49;;;;;;;25.65;17.60;;;;;;;5.51;87.02;102202.78;5031352;28;20083;-72
2022/01/25 04:04:18;;;;;;;27.48;18.38;;;;;;;5.52;87.18;102191.47;5031333;28;20143;-71
2022/01/25 04:06:48;;;;;;;21.30;15.57;;;;;;;5.55;86.79;102194.22;5031043;28;20377;-71
2022/01/25 04:09:13;;;;;;;24.80;17.98;;;;;;;5.54;86.81;102195.06;5031071;28;20506;-71
2022/01/25 04:11:39;;;;;;;24.13;16.52;;;;;;;5.63;86.64;102198.06;5031132;28;20120;-71
2022/01/25 04:14:05;;;;;;;21.50;16.13;;;;;;;5.57;87.09;102197.78;5031148;28;20037;-71
2022/01/25 04:16:35;;;;;;;26.17;17.88;;;;;;;5.53;87.22;102195.91;5030937;28;20072;-72
2022/01/25 04:19:24;;;;;;;25.23;19.10;;;;;;;5.45;87.13;102197.31;5031057;28;20044;-71
2022/01/25 04:27:26;;;;;;;24.98;18.85;;;;;;;5.36;88.47;102200.41;5028377;28;20037;-72
2022/01/25 04:29:52;;;;;;;28.88;19.63;;;;;;;5.38;88.35;102197.88;5030827;28;20029;-72
2022/01/25 04:32:19;;;;;;;26.40;18.90;;;;;;;5.44;88.16;102193.78;5030965;28;20067;-71
2022/01/25 04:35:09;;;;;;;26.83;18.15;;;;;;;5.45;88.44;102194.69;5030696;28;20037;-71
2022/01/25 04:53:47;;;;;;;24.50;17.60;;;;;;;5.44;88.46;102200.75;5030716;28;20065;-71
2022/01/25 04:56:30;;;;;;;25.73;19.73;;;;;;;5.47;88.67;102193.91;5029022;28;20038;-71
2022/01/25 04:59:08;;;;;;;25.75;17.90;;;;;;;5.48;88.34;102195.72;5028930;28;20507;-72
2022/01/25 05:01:34;;;;;;;26.00;18.40;;;;;;;5.46;88.43;102186.88;5032406;28;20121;-74
2022/01/25 05:04:07;;;;;;;25.58;17.85;;;;;;;5.46;88.82;102189.50;5034310;28;20041;-72
2022/01/25 05:06:33;;;;;;;25.15;17.08;;;;;;;5.47;89.15;102190.38;5034250;28;20124;-72
2022/01/25 05:09:10;;;;;;;27.70;19.27;;;;;;;5.43;88.92;102192.00;5033352;28;20444;-72
2022/01/25 05:11:40;;;;;;;24.90;16.88;;;;;;;5.43;89.01;102192.00;5033953;28;20063;-73
2022/01/25 05:16:34;;;;;;;22.67;15.75;;;;;;;5.39;89.20;102190.06;5034007;28;20037;-72
2022/01/25 05:22:19;;;;;;;20.75;13.35;;;;;;;5.36;88.96;102191.69;5031489;28;20052;-71
2022/01/25 05:24:47;;;;;;;20.65;14.20;;;;;;;5.29;89.36;102185.28;5028624;28;20056;-72
2022/01/25 05:27:15;;;;;;;21.35;14.27;;;;;;;5.26;89.31;102203.47;5033285;28;20056;-72
2022/01/25 05:29:40;;;;;;;23.20;15.57;;;;;;;5.24;89.63;102195.59;5032484;28;20029;-71
2022/01/25 05:32:06;;;;;;;20.90;13.80;;;;;;;5.31;89.38;102201.06;5032695;28;20103;-71
2022/01/25 05:34:32;;;;;;;22.17;14.45;;;;;;;5.27;89.58;102205.28;5031661;28;20029;-72
2022/01/25 05:36:57;;;;;;;18.92;13.20;;;;;;;5.33;89.58;102215.13;5032375;28;20029;-72
2022/01/25 05:39:34;;;;;;;18.60;13.48;;;;;;;5.29;89.45;102203.59;5029070;28;20045;-72
2022/01/25 05:42:17;;;;;;;21.42;14.68;;;;;;;5.25;89.15;102213.06;5026273;28;20412;-72
2022/01/25 05:47:14;;;;;;;22.15;14.30;;;;;;;5.31;89.48;102204.56;5028673;28;20492;-72
2022/01/25 05:49:41;;;;;;;18.67;12.73;;;;;;;5.31;88.75;102207.19;5027153;28;21041;-72
2022/01/25 05:52:08;;;;;;;23.48;14.85;;;;;;;5.20;88.60;102204.13;5030828;28;20067;-72
2022/01/25 05:54:34;;;;;;;23.25;15.23;;;;;;;5.19;88.97;102207.56;5033194;28;20040;-73
2022/01/25 05:56:59;;;;;;;22.38;14.80;;;;;;;5.22;89.09;102196.34;5032510;28;20029;-72
2022/01/25 05:59:25;;;;;;;20.70;14.05;;;;;;;5.20;88.89;102201.50;5032007;28;20095;-72
2022/01/25 06:01:50;;;;;;;23.40;15.68;;;;;;;5.20;89.25;102201.50;5031064;28;20080;-72
2022/01/25 06:04:16;;;;;;;21.48;14.65;;;;;;;5.21;88.74;102205.00;5033035;28;20099;-72
2022/01/25 06:06:42;;;;;;;21.67;13.27;;;;;;;5.14;88.64;102196.03;5032854;28;20056;-72
2022/01/25 06:09:07;;;;;;;19.58;13.73;;;;;;;5.09;89.28;102204.50;5030918;28;20108;-71
2022/01/25 06:11:34;;;;;;;18.77;12.77;;;;;;;5.00;88.85;102213.75;5031873;28;20037;-71
2022/01/25 06:14:00;;;;;;;18.85;13.60;;;;;;;5.00;88.94;102207.59;5025983;28;20040;-71
2022/01/25 06:16:28;;;;;;;21.73;14.82;;;;;;;4.93;88.82;102216.03;5031139;28;20044;-72
2022/01/25 06:18:57;;;;;;;20.65;14.00;;;;;;;4.88;88.91;102221.06;5029030;28;20037;-72
2022/01/25 06:21:23;;;;;;;21.70;14.70;;;;;;;4.85;88.70;102226.16;5032336;28;20502;-72
2022/01/25 06:23:49;;;;;;;21.85;14.27;;;;;;;4.88;88.29;102220.16;5031776;28;20037;-72
2022/01/25 06:26:14;;;;;;;20.48;13.88;;;;;;;4.84;88.83;102219.13;5032726;28;20408;-72
2022/01/25 06:28:40;;;;;;;23.05;14.48;;;;;;;4.85;88.14;102223.53;5032581;28;20025;-72
2022/01/25 06:31:07;;;;;;;20.20;14.98;;;;;;;4.82;88.36;102226.91;5032879;28;20067;-71
2022/01/25 06:33:32;;;;;;;23.55;16.08;;;;;;;4.83;88.64;102219.97;5032269;28;20060;-72
2022/01/25 06:35:57;;;;;;;24.30;15.52;;;;;;;4.87;88.38;102214.00;5032211;28;20037;-72
2022/01/25 06:38:23;;;;;;;22.08;15.23;;;;;;;4.87;88.18;102214.00;5032722;28;20113;-71
2022/01/25 06:40:48;;;;;;;24.23;15.68;;;;;;;4.94;88.57;102220.44;5032003;28;20041;-72
2022/01/25 06:43:13;;;;;;;23.75;15.32;;;;;;;4.90;88.67;102214.19;5031819;28;20045;-72
2022/01/25 06:45:41;;;;;;;23.05;16.08;;;;;;;4.95;88.45;102211.72;5032214;28;20040;-72
2022/01/25 06:48:07;;;;;;;25.25;15.85;;;;;;;4.88;88.01;102207.09;5027116;28;20479;-71
2022/01/25 06:50:33;;;;;;;24.55;15.82;;;;;;;4.86;88.20;102220.09;5031585;28;20052;-71
2022/01/25 06:52:59;;;;;;;21.55;15.32;;;;;;;4.84;88.31;102235.69;5028181;28;20033;-72
2022/01/25 06:55:25;;;;;;;22.45;16.23;;;;;;;4.82;88.17;102236.47;5031735;28;20033;-72
2022/01/25 06:57:51;;;;;;;26.17;17.17;;;;;;;4.78;88.35;102237.16;5032161;28;20029;-72
2022/01/25 07:00:20;;;;;;;28.25;16.33;;;;;;;4.80;89.05;102241.66;5032170;28;20045;-71
2022/01/25 07:02:46;;;;;;;27.70;16.88;;;;;;;4.73;88.68;102236.94;5032223;28;20095;-71
2022/01/25 07:05:12;;;;;;;26.52;17.35;;;;;;;4.73;88.81;102236.06;5030252;28;20033;-71
2022/01/25 07:07:39;;;;;;;31.83;17.98;;;;;;;4.73;89.26;102247.41;5031957;28;20037;-71
2022/01/25 07:10:06;;;;;;;29.23;18.83;;;;;;;4.72;88.78;102248.25;5031878;28;20167;-72
2022/01/25 07:12:31;;;;;;;26.05;17.38;;;;;;;4.74;88.89;102253.53;5031904;28;20175;-71
2022/01/25 07:14:57;;;;;;;24.40;17.17;;;;;;;4.78;88.97;102251.13;5029816;28;20057;-72
2022/01/25 07:17:22;;;;;;;24.40;15.23;;;;;;;4.78;89.15;102251.13;5031155;28;20037;-72
2022/01/25 07:19:48;;;;;;;26.17;17.27;;;;;;;4.79;89.21;102258.19;5031654;28;20041;-72
2022/01/25 07:22:14;;;;;;;24.60;16.73;;;;;;;4.75;88.97;102242.28;5031686;28;20116;-71
2022/01/25 07:24:40;;;;;;;27.40;16.90;;;;;;;4.74;88.62;102248.31;5031415;28;20467;-72
2022/01/25 07:27:05;;;;;;;26.23;16.40;;;;;;;4.75;87.83;102251.00;5030326;28;20032;-72
2022/01/25 07:29:31;;;;;;;29.88;19.27;;;;;;;4.67;88.30;102241.91;5031610;28;20432;-72
2022/01/25 07:31:56;;;;;;;28.35;16.38;;;;;;;4.69;88.04;102255.97;5030505;28;20047;-71
2022/01/25 07:34:23;;;;;;;26.23;17.88;;;;;;;4.70;88.26;102246.41;5029594;28;20211;-72
2022/01/25 07:36:49;;;;;;;29.23;17.48;;;;;;;4.68;88.27;102248.94;5031549;28;20404;-71
2022/01/25 07:39:14;;;;;;;28.73;17.15;;;;;;;4.70;88.17;102243.78;5031320;28;20040;-71
2022/01/25 07:41:40;;;;;;;27.38;18.13;;;;;;;4.69;87.64;102250.75;5031400;28;20037;-72
2022/01/25 07:44:06;;;;;;;26.75;16.92;;;;;;;4.72;87.84;102245.63;5029815;28;20067;-72
2022/01/25 07:46:32;;;;;;;30.10;17.67;;;;;;;4.79;87.10;102249.41;5031336;28;20051;-72
2022/01/25 07:48:58;;;;;;;23.85;15.50;;;;;;;4.76;86.44;102250.16;5031068;28;20548;-72
2022/01/25 07:51:28;;;;;;;28.70;18.08;;;;;;;4.77;85.51;102243.25;5027250;28;20042;-72
2022/01/25 07:53:54;;;;;;;23.08;15.65;;;;;;;4.82;84.91;102253.06;5028309;28;20112;-72
2022/01/25 07:56:20;;;;;;;24.90;16.17;;;;;;;4.86;85.13;102254.09;5033141;28;20057;-71
2022/01/25 07:58:46;;;;;;;27.95;16.50;;;;;;;4.91;84.71;102249.06;5039305;28;20096;-72
2022/01/25 08:01:11;;;;;;;24.52;15.60;;;;;;;4.92;83.09;102250.84;5039025;28;20041;-72
2022/01/25 08:03:38;;;;;;;21.13;14.13;;;;;;;4.88;82.98;102242.00;5030943;28;20076;-71
2022/01/25 08:06:04;;;;;;;26.77;16.23;;;;;;;4.88;83.38;102243.72;5028099;28;20500;-71
2022/01/25 08:08:30;;;;;;;24.45;16.48;;;;;;;4.96;83.15;102248.44;5030923;28;20034;-71
2022/01/25 08:10:55;;;;;;;26.48;17.48;;;;;;;4.93;83.15;102248.31;5030719;28;20138;-72
2022/01/25 08:13:20;;;;;;;26.58;16.83;;;;;;;4.88;82.98;102241.09;5030941;28;20025;-71
2022/01/25 08:15:46;;;;;;;24.30;16.45;;;;;;;4.85;83.82;102239.25;5030704;28;20038;-71
2022/01/25 08:18:11;;;;;;;23.98;15.75;;;;;;;4.86;83.48;102238.41;5030259;28;20041;-71
2022/01/25 08:20:37;;;;;;;25.90;16.90;;;;;;;4.83;84.00;102233.91;5030277;28;20029;-72
2022/01/25 08:23:02;;;;;;;27.25;17.85;;;;;;;4.80;84.06;102228.56;5030931;28;20091;-72
2022/01/25 08:25:28;;;;;;;24.38;17.08;;;;;;;4.69;84.54;102227.19;5030697;28;20037;-72
2022/01/25 08:27:53;;;;;;;25.17;17.45;;;;;;;4.61;85.08;102223.31;5030812;28;20033;-71
2022/01/25 08:30:19;;;;;;;25.38;17.65;;;;;;;4.61;85.14;102232.09;5031003;28;20063;-71
2022/01/25 08:32:44;;;;;;;26.90;18.45;;;;;;;4.58;84.58;102231.94;5032499;28;20488;-72
2022/01/25 08:35:10;;;;;;;25.70;17.42;;;;;;;4.52;85.65;102229.03;5034543;28;20045;-71
2022/01/25 08:37:36;;;;;;;24.95;17.63;;;;;;;4.47;86.04;102232.25;5034634;28;20040;-72
2022/01/25 08:40:06;;;;;;;26.88;17.38;;;;;;;4.45;86.46;102229.56;5034855;28;20510;-72
2022/01/25 08:42:32;;;;;;;28.63;18.27;;;;;;;4.44;86.21;102238.25;5033530;28;20048;-72
2022/01/25 08:44:58;;;;;;;25.58;17.95;;;;;;;4.41;86.96;102237.22;5034085;28;20419;-71
2022/01/25 08:47:24;;;;;;;25.52;16.27;;;;;;;4.41;87.20;102232.00;5034608;28;20033;-71
2022/01/25 08:49:49;;;;;;;25.92;16.67;;;;;;;4.37;87.04;102230.94;5034537;28;20045;-71
2022/01/25 08:52:15;;;;;;;30.05;18.33;;;;;;;4.32;87.93;102224.59;5034358;28;20037;-71
2022/01/25 08:54:40;;;;;;;35.00;19.52;;;;;;;4.32;88.64;102230.75;5033218;28;20037;-71
2022/01/25 08:57:06;;;;;;;28.10;18.92;;;;;;;4.31;88.31;102226.31;5033349;28;20033;-72
2022/01/25 08:59:32;;;;;;;29.98;19.42;;;;;;;4.28;88.13;102239.25;5034522;28;20044;-72
2022/01/25 09:01:57;;;;;;;31.58;19.92;;;;;;;4.29;88.85;102227.97;5034023;28;20037;-72
2022/01/25 09:04:23;;;;;;;29.73;19.23;;;;;;;4.38;88.53;102233.63;5032955;28;20488;-71
2022/01/25 09:06:48;;;;;;;28.88;18.17;;;;;;;4.34;88.49;102236.91;5034159;28;20510;-71
2022/01/25 09:09:14;;;;;;;31.90;19.42;;;;;;;4.33;88.69;102235.13;5032449;28;20033;-71
2022/01/25 09:11:40;;;;;;;30.05;18.90;;;;;;;4.32;88.32;102235.97;5033933;28;20044;-71
2022/01/25 09:14:06;;;;;;;30.20;19.20;;;;;;;4.33;88.79;102235.13;5033994;28;20041;-71
2022/01/25 09:16:32;;;;;;;26.42;16.58;;;;;;;4.30;88.70;102242.84;5033390;28;20037;-71
2022/01/25 09:18:58;;;;;;;28.45;17.75;;;;;;;4.28;88.72;102241.88;5030905;28;20538;-73
2022/01/25 09:21:23;;;;;;;28.10;17.38;;;;;;;4.27;88.21;102241.78;5033563;28;20072;-74
2022/01/25 09:23:49;;;;;;;29.60;18.77;;;;;;;4.26;88.72;102237.41;5033963;28;20404;-73
2022/01/25 09:26:16;;;;;;;32.60;19.60;;;;;;;4.32;89.00;102237.66;5033605;28;20030;-72
2022/01/25 09:28:41;;;;;;;31.25;18.60;;;;;;;4.35;88.76;102241.34;5033784;28;20045;-73
2022/01/25 09:31:06;;;;;;;28.38;17.08;;;;;;;4.39;88.55;102238.03;5034033;28;20040;-73
2022/01/25 09:33:32;;;;;;;34.50;18.88;;;;;;;4.31;88.93;102239.41;5034038;28;20037;-74
2022/01/25 09:35:57;;;;;;;26.38;16.45;;;;;;;4.35;88.33;102250.91;5032435;28;20040;-73
2022/01/25 09:38:24;;;;;;;26.40;16.95;;;;;;;4.33;88.59;102255.16;5033808;28;20041;-73
2022/01/25 09:40:50;;;;;;;29.45;18.27;;;;;;;4.32;88.41;102259.50;5032579;28;20048;-73
2022/01/25 09:43:16;;;;;;;31.95;18.75;;;;;;;4.27;88.68;102268.84;5031107;28;20033;-73
2022/01/25 09:45:42;;;;;;;32.30;19.13;;;;;;;4.31;89.43;102257.69;5033228;28;20033;-73
2022/01/25 09:48:10;;;;;;;28.30;16.40;;;;;;;4.35;88.04;102258.75;5030392;28;20067;-73
2022/01/25 09:50:37;;;;;;;29.70;17.00;;;;;;;4.36;88.69;102264.03;5033413;28;20112;-73
2022/01/25 09:53:04;;;;;;;28.73;17.50;;;;;;;4.35;88.21;102264.88;5029677;28;20086;-73
2022/01/25 09:55:33;;;;;;;29.00;16.63;;;;;;;4.36;87.86;102257.91;5033222;28;20036;-73
2022/01/25 09:57:58;;;;;;;30.42;18.13;;;;;;;4.36;88.40;102252.69;5032894;28;20057;-74
2022/01/25 10:00:26;;;;;;;32.17;17.58;;;;;;;4.48;87.32;102254.97;5033092;28;20068;-73
2022/01/25 10:03:05;;;;;;;29.17;17.60;;;;;;;4.36;87.38;102248.34;5033158;28;20083;-73
2022/01/25 10:05:35;;;;;;;33.33;18.92;;;;;;;4.29;87.83;102246.25;5030656;28;20067;-74
2022/01/25 10:08:05;;;;;;;27.70;16.73;;;;;;;4.34;88.21;102247.38;5030220;28;20041;-73
2022/01/25 10:10:32;;;;;;;32.20;17.15;;;;;;;4.41;87.96;102242.44;5033086;28;20040;-73
2022/01/25 10:13:22;;;;;;;30.73;17.40;;;;;;;4.48;88.29;102240.19;5033123;28;20120;-72
2022/01/25 10:15:56;;;;;;;26.55;16.20;;;;;;;4.53;87.68;102243.00;5031307;28;20530;-73
2022/01/25 10:18:22;;;;;;;28.30;17.92;;;;;;;4.49;87.82;102251.53;5032917;28;20030;-74
2022/01/25 10:20:50;;;;;;;29.33;17.30;;;;;;;4.50;87.04;102246.34;5032919;28;20043;-73
2022/01/25 10:23:18;;;;;;;31.58;17.48;;;;;;;4.45;87.46;102245.25;5033026;28;20033;-73
2022/01/25 10:25:46;;;;;;;28.85;15.60;;;;;;;4.55;86.89;102246.59;5032641;28;20107;-74
2022/01/25 10:28:14;;;;;;;25.25;15.55;;;;;;;4.61;85.74;102247.78;5032838;28;20045;-73
2022/01/25 10:30:41;;;;;;;27.98;17.13;;;;;;;4.66;86.15;102241.84;5033075;28;20399;-74
2022/01/25 10:33:25;;;;;;;23.65;15.30;;;;;;;4.61;85.32;102246.84;5032743;28;20411;-74
2022/01/25 10:35:51;;;;;;;26.10;16.33;;;;;;;4.57;86.35;102251.06;5024441;28;20037;-74
2022/01/25 10:38:28;;;;;;;27.23;16.65;;;;;;;4.56;85.79;102253.63;5032766;28;20070;-73
2022/01/25 10:41:01;;;;;;;31.55;17.00;;;;;;;4.51;85.76;102242.06;5029990;28;20040;-73
2022/01/25 10:43:27;;;;;;;23.65;13.82;;;;;;;4.36;84.82;102253.56;5032643;28;20377;-73
2022/01/25 10:46:18;;;;;;;25.27;14.48;;;;;;;4.11;85.76;102253.22;5032206;28;20120;-73
2022/01/25 10:48:50;;;;;;;26.38;14.40;;;;;;;3.93;86.80;102248.94;5029041;28;20080;-73
2022/01/25 10:51:17;;;;;;;26.98;14.88;;;;;;;3.80;86.82;102251.78;5032586;28;20037;-73
2022/01/25 10:53:43;;;;;;;29.52;14.90;;;;;;;3.72;87.62;102253.09;5032368;28;20538;-73
2022/01/25 10:56:09;;;;;;;27.98;15.20;;;;;;;3.64;88.07;102241.38;5029856;28;20026;-74
2022/01/25 10:58:42;;;;;;;30.55;15.65;;;;;;;3.68;88.28;102245.94;5027983;28;20029;-73
2022/01/25 11:01:10;;;;;;;29.52;14.55;;;;;;;3.63;87.71;102247.44;5032098;28;20033;-73
2022/01/25 11:03:42;;;;;;;26.42;13.88;;;;;;;3.69;87.83;102255.56;5031885;28;20038;-75
2022/01/25 11:06:28;;;;;;;31.25;15.73;;;;;;;3.69;87.90;102258.16;5031848;28;20691;-74
2022/01/25 11:08:57;;;;;;;28.27;14.73;;;;;;;3.61;88.03;102252.56;5027709;28;20049;-73
2022/01/25 11:11:32;;;;;;;30.27;15.05;;;;;;;3.63;88.15;102250.94;5028210;28;20049;-75
2022/01/25 11:14:49;;;;;;;28.33;14.40;;;;;;;3.73;88.08;102244.44;5030637;28;20069;-74
2022/01/25 11:16:43;;;;;;;28.05;15.73;;;;;;;3.80;88.46;102245.63;5027095;28;20535;-74
2022/01/25 11:19:08;;;;;;;28.10;14.80;;;;;;;3.83;88.13;102244.09;5031649;28;20025;-73
2022/01/25 11:21:34;;;;;;;29.35;14.80;;;;;;;3.85;87.89;102245.06;5030187;28;20044;-73
2022/01/25 11:23:59;;;;;;;25.90;14.05;;;;;;;3.80;87.34;102241.31;5031484;28;20041;-74
2022/01/25 11:26:25;;;;;;;31.45;16.27;;;;;;;3.84;87.95;102245.88;5028900;28;20120;-73
2022/01/25 11:28:51;;;;;;;25.40;14.27;;;;;;;3.86;87.33;102240.72;5030573;28;20026;-73
2022/01/25 11:31:19;;;;;;;26.23;13.70;;;;;;;3.80;87.42;102241.31;5030318;28;20754;-74
2022/01/25 11:33:47;;;;;;;31.35;15.32;;;;;;;3.77;87.40;102241.16;5028466;28;20485;-73
2022/01/25 11:36:13;;;;;;;27.63;13.80;;;;;;;3.82;88.34;102239.66;5028218;28;20037;-73
2022/01/25 11:38:43;;;;;;;28.85;13.32;;;;;;;3.86;88.20;102225.94;5029730;28;20429;-73
2022/01/25 11:41:15;;;;;;;26.88;14.80;;;;;;;3.83;87.81;102225.81;5028820;28;20036;-73
2022/01/25 11:44:03;;;;;;;29.73;15.03;;;;;;;3.85;87.83;102232.00;5031494;28;20430;-73
2022/01/25 11:46:29;;;;;;;24.15;13.52;;;;;;;3.85;87.23;102220.63;5027794;28;20035;-72
2022/01/25 11:48:54;;;;;;;25.27;12.93;;;;;;;3.85;87.01;102224.16;5027344;28;20037;-73
2022/01/25 11:51:20;;;;;;;23.52;12.73;;;;;;;3.87;87.61;102221.63;5029594;28;20037;-73
2022/01/25 11:53:48;;;;;;;23.73;12.60;;;;;;;3.88;87.26;102221.69;5031462;28;20077;-73
2022/01/25 11:56:15;;;;;;;29.00;13.63;;;;;;;3.92;87.60;102214.88;5030285;28;20025;-74
2022/01/25 11:58:41;;;;;;;25.80;13.13;;;;;;;4.03;87.10;102211.06;5030820;28;20108;-74
2022/01/25 12:01:17;;;;;;;22.95;11.70;;;;;;;4.14;86.49;102202.03;5030729;28;20481;-73
2022/01/25 12:03:48;;;;;;;27.48;13.15;;;;;;;4.16;86.68;102202.97;5029798;28;20033;-73
2022/01/25 12:06:22;;;;;;;21.53;12.47;;;;;;;4.24;86.16;102199.81;5027916;28;20025;-74
2022/01/25 12:11:41;;;;;;;19.77;11.50;;;;;;;4.55;84.91;102194.28;5031210;28;20491;-73
2022/01/25 12:14:25;;;;;;;22.98;12.35;;;;;;;4.71;83.94;102188.00;5030081;28;20029;-73
2022/01/25 12:17:08;;;;;;;24.80;12.98;;;;;;;4.88;83.78;102194.00;5026950;28;20183;-74
2022/01/25 12:19:48;;;;;;;21.60;11.90;;;;;;;5.10;83.02;102182.72;5019859;28;20042;-74
2022/01/25 12:22:27;;;;;;;23.05;12.40;;;;;;;5.15;82.43;102179.47;5041142;28;20045;-74
2022/01/25 12:25:09;;;;;;;24.50;12.70;;;;;;;5.11;81.80;102182.81;5025840;28;20183;-74
2022/01/25 12:27:57;;;;;;;23.75;12.95;;;;;;;5.12;81.31;102173.22;5019168;28;20129;-74
2022/01/25 12:30:26;;;;;;;24.85;11.80;;;;;;;5.07;81.10;102175.63;5021467;28;20060;-74
2022/01/25 12:33:00;;;;;;;23.50;12.63;;;;;;;5.04;80.65;102175.50;5025850;28;20095;-73
2022/01/25 12:35:42;;;;;;;24.35;12.95;;;;;;;4.99;80.75;102166.56;5027211;28;20041;-74
2022/01/25 12:38:35;;;;;;;26.83;13.23;;;;;;;4.97;80.53;102169.09;5031044;28;20033;-74
2022/01/25 12:41:12;;;;;;;;;;;;;;;5.10;81.24;102159.19;5029203;28;20503;-73
2022/01/25 12:43:47;;;;;;;23.27;13.10;;;;;;;5.18;80.38;102147.31;5030736;28;19913;-74
2022/01/25 12:46:16;;;;;;;21.63;11.50;;;;;;;5.19;79.75;102150.00;5030497;28;20128;-73
2022/01/25 12:48:47;;;;;;;24.83;12.75;;;;;;;5.19;80.21;102147.38;5026723;28;20033;-74
2022/01/25 12:51:17;;;;;;;24.65;14.00;;;;;;;5.25;79.41;102138.88;5026477;28;20035;-74
2022/01/25 12:53:45;;;;;;;24.70;13.45;;;;;;;5.20;79.54;102135.19;5022943;28;20038;-74
2022/01/25 12:56:18;;;;;;;23.52;12.63;;;;;;;5.22;79.48;102129.16;5026372;28;20068;-72
2022/01/25 12:58:46;;;;;;;22.85;12.98;;;;;;;5.29;79.69;102132.91;5030366;28;20029;-71
2022/01/25 13:01:18;;;;;;;24.55;12.85;;;;;;;5.26;78.59;102122.31;5029430;28;20451;-72
2022/01/25 13:03:52;;;;;;;25.95;12.88;;;;;;;5.09;78.64;102118.16;5030740;28;20064;-72
2022/01/25 13:06:31;;;;;;;20.70;11.15;;;;;;;5.09;78.82;102121.66;5028678;28;20045;-72
2022/01/25 13:11:49;;;;;;;20.42;11.57;;;;;;;4.92;78.54;102123.53;5029877;28;20500;-72
2022/01/25 13:14:31;;;;;;;26.38;13.57;;;;;;;4.81;79.12;102127.44;5030520;28;20033;-72